createdAt,value
2018-03-16T13:44:59.549Z,12.30
2018-03-16T14:07:07.888Z,12.30
2018-03-16T15:01:23.895Z,12.30
2018-03-16T15:01:30.041Z,12.30
2018-03-16T15:02:59.655Z,12.30
2018-03-16T15:04:08.932Z,12.30
2018-03-16T15:05:17.278Z,12.30
2018-03-16T15:08:33.255Z,12.30
2018-03-16T15:09:44.668Z,12.30
2018-03-16T15:10:53.680Z,12.30
2018-03-16T15:23:45.775Z,12.30
2018-03-16T15:24:52.426Z,22.1
2018-03-16T15:24:53.418Z,12.30
2018-03-16T15:25:22.509Z,12.30
2018-03-16T15:26:30.887Z,12.30
2018-03-16T15:27:41.655Z,12.30
2018-03-16T15:28:37.725Z,12
2018-03-16T15:29:47.750Z,12
2018-03-16T15:30:55.078Z,12
2018-03-16T15:31:23.101Z,12
2018-03-16T15:32:31.551Z,12
2018-03-16T15:33:40.899Z,12
2018-03-16T15:34:49.602Z,12.30
2018-03-16T15:35:59.403Z,12.30
2018-03-16T15:37:06.183Z,12.30
2018-03-16T15:38:15.743Z,12.30
2018-03-16T15:39:24.810Z,12.30
2018-03-16T15:40:34.976Z,12.30
2018-03-16T15:41:45.262Z,12.30
2018-03-16T15:42:55.181Z,12.30
2018-03-16T15:44:02.435Z,12.30
2018-03-16T15:45:12.691Z,12.30
2018-03-16T15:46:20.437Z,12.30
2018-03-16T15:47:48.510Z," 12.3"
2018-03-16T15:48:57.317Z," 12.3"
2018-03-16T15:50:07.532Z," 12.3"
2018-03-16T15:51:07.960Z," 12.3"
2018-03-16T15:52:17.388Z," 12.3"
2018-03-16T15:52:48.489Z," 12.3"
2018-03-16T15:53:58.174Z," 12.3"
2018-03-16T15:55:07.559Z," 12.3"
2018-03-16T15:56:14.715Z," 12.3"
2018-03-16T15:57:21.990Z," 12.3"
2018-03-16T15:58:29.727Z," 12.3"
2018-03-16T15:59:50.125Z," 12.3"
2018-03-16T16:00:59.242Z," 12.3"
2018-03-16T16:02:09.466Z," 12.3"
2018-03-16T16:03:16.533Z," 12.3"
2018-03-16T16:04:25.270Z," 12.3"
2018-03-16T16:05:34.221Z," 12.3"
2018-03-16T16:06:44.288Z," 12.3"
2018-03-16T16:07:51.961Z," 12.3"
2018-03-16T16:08:59.918Z," 12.3"
2018-03-16T16:10:07.856Z," 12.3"
2018-03-16T16:11:17.069Z," 12.3"
2018-03-16T16:12:24.360Z," 12.3"
2018-03-16T16:13:36.953Z," 12.3"
2018-03-16T16:14:46.965Z," 12.3"
2018-03-16T16:15:55.571Z," 12.3"
2018-03-16T16:17:02.299Z," 12.3"
2018-03-16T16:18:08.518Z," 12.3"
2018-03-16T16:19:16.223Z," 12.3"
2018-03-16T16:20:24.685Z," 12.3"
2018-03-16T16:21:32.933Z," 12.3"
2018-03-16T16:22:41.553Z," 12.3"
2018-03-16T16:24:00.865Z," 12.3"
2018-03-16T16:25:12.269Z," 12.3"
2018-03-16T16:26:20.368Z," 12.3"
2018-03-16T16:27:27.496Z," 12.3"
2018-03-16T16:28:36.793Z," 12.3"
2018-03-16T16:29:45.364Z," 12.3"
2018-03-16T16:30:56.642Z," 12.3"
2018-03-16T16:32:04.283Z," 12.3"
2018-03-16T16:32:50.559Z," 12.3"
2018-03-16T16:33:58.751Z," 12.3"
2018-03-16T16:35:06.726Z," 12.3"
2018-03-16T16:36:15.718Z," 12.3"
2018-03-16T16:37:28.697Z," 12.3"
2018-03-16T16:38:38.634Z," 12.3"
2018-03-16T16:39:49.069Z," 12.3"
2018-03-16T18:39:58.959Z," 12.3"
2018-03-16T18:41:10.466Z," 12.3"
2018-03-16T18:41:36.912Z," 12.3"
2018-03-16T18:48:19.785Z," 12.3"
2018-03-16T18:56:11.368Z," 12.3"
2018-03-16T19:05:29.067Z," 12.3"
2018-03-16T19:07:06.626Z," 12.3"
2018-03-16T19:08:17.564Z," 12.3"
2018-03-16T19:13:53.358Z," 12.3"
2018-03-16T19:15:53.941Z," 12.3"
2018-03-16T19:17:48.062Z," 12.3"
2018-03-16T19:19:19.383Z," 12.3"
2018-03-16T19:20:33.013Z," 12.3"
2018-03-16T19:21:40.664Z," 12.3"
2018-03-16T19:22:50.181Z," 12.3"
2018-03-16T19:23:57.353Z," 12.3"
2018-03-16T19:25:20.608Z," 12.3"
2018-03-16T19:26:41.850Z," 12.3"
2018-03-16T19:27:57.411Z," 12.3"
2018-03-16T19:29:05.530Z," 12.3"
2018-03-16T19:30:30.436Z," 12.3"
2018-03-16T19:32:03.827Z," 12.3"
2018-03-16T19:33:54.750Z," 12.3"
2018-03-16T19:35:02.696Z," 12.3"
2018-03-16T19:36:38.704Z," 12.3"
2018-03-16T19:38:23.868Z," 12.3"
2018-03-16T19:40:57.639Z," 12.3"
2018-03-16T19:42:56.410Z," 12.3"
2018-03-16T19:44:58.552Z," 12.3"
2018-03-16T19:46:49.990Z," 12.3"
2018-03-16T19:48:22.095Z," 12.3"
2018-03-16T19:49:30.432Z," 12.3"
2018-03-16T19:50:37.718Z," 12.3"
2018-03-16T19:51:46.440Z," 12.3"
2018-03-16T19:52:53.340Z," 12.3"
2018-03-16T19:54:02.873Z," 12.3"
2018-03-16T19:56:46.672Z," 12.3"
2018-03-16T19:57:35.291Z," 12.3"
2018-03-16T19:58:43.261Z," 12.3"
2018-03-16T19:59:51.160Z," 12.3"
2018-03-16T20:00:58.330Z," 12.3"
2018-03-16T20:02:08.129Z," 12.3"
2018-03-16T20:03:19.244Z," 12.3"
2018-03-16T20:04:28.429Z," 21.7"
2018-03-16T20:05:40.182Z," 21.7"
2018-03-16T20:06:49.893Z," 21.7"
2018-03-16T20:07:39.969Z," 12.3"
2018-03-16T20:08:50.181Z," 12.3"
2018-03-16T20:09:59.721Z," 12.3"
2018-03-16T20:11:13.678Z," 12.3"
2018-03-16T20:13:21.783Z," 12.3"
2018-03-16T20:14:15.415Z," 12.3"
2018-03-16T20:15:38.446Z," 12.3"
2018-03-16T20:16:54.947Z," 12.3"
2018-03-16T20:18:21.106Z," 12.3"
2018-03-16T20:19:30.528Z," 12.3"
2018-03-16T20:20:40.256Z," 12.3"
2018-03-16T20:21:46.920Z," 12.3"
2018-03-16T20:24:08.481Z," 12.3"
2018-03-16T20:25:18.350Z," 12.3"
2018-03-16T20:26:04.648Z," 12.3"
2018-03-16T20:27:12.957Z," 12.3"
2018-03-16T20:27:51.633Z," 12.3"
2018-03-16T20:29:01.280Z," 12.3"
2018-03-16T20:30:09.455Z," 12.3"
2018-03-16T20:31:16.614Z," 12.3"
2018-03-16T20:35:00.951Z," 12.3"
2018-03-16T20:36:09.645Z," 12.3"
2018-03-16T20:36:43.304Z," 12.3"
2018-03-16T20:40:03.641Z," 12.3"
2018-03-16T20:41:13.601Z," 12.3"
2018-03-16T20:42:22.598Z,"  0.0"
2018-03-16T20:45:41.010Z," 12.3"
2018-03-16T21:16:16.396Z," 12.3"
2018-03-16T21:17:04.943Z,-1894.4
2018-03-16T21:26:50.671Z," 12.3"
2018-03-16T21:30:41.403Z," 12.3"
2018-03-16T21:43:56.407Z,-1766.4
2018-03-16T21:45:03.409Z,-1766.4
2018-03-16T21:46:11.349Z,-1766.4
2018-03-16T21:47:20.891Z,-1740.8
2018-03-16T21:48:30.471Z,-1715.2
2018-03-16T21:49:39.166Z,-1715.2
2018-03-16T21:50:50.637Z,-1715.2
2018-03-16T21:52:00.201Z,-1689.6
2018-03-16T21:53:08.740Z,-1689.6
2018-03-16T21:54:19.281Z,-1689.6
2018-03-16T21:55:27.435Z,-1689.6
2018-03-16T21:56:34.613Z,-1689.6
2018-03-16T21:57:44.527Z,-1664.0
2018-03-16T21:58:52.823Z,-1664.0
2018-03-16T22:00:02.971Z,-1664.0
2018-03-16T22:01:10.624Z,-1638.4
2018-03-16T22:02:17.799Z,-1638.4
2018-03-16T22:03:25.995Z,-1638.4
2018-03-16T22:04:32.781Z,-1638.4
2018-03-16T22:05:40.710Z,"  0.0"
2018-03-16T22:06:47.863Z,"  0.0"
2018-03-16T22:07:39.561Z," 12.3"
2018-03-16T22:08:46.947Z,"  0.0"
2018-03-16T22:09:55.374Z,"  0.0"
2018-03-16T22:11:02.778Z,"  0.0"
2018-03-16T22:12:12.642Z,"  0.0"
2018-03-16T22:13:27.590Z,"  0.0"
2018-03-16T22:14:34.327Z,"  0.0"
2018-03-16T22:15:03.857Z," 12.3"
2018-03-16T22:16:23.830Z,"  0.0"
2018-03-16T22:17:33.355Z,"  0.0"
